sensor_id;sensor_type;location;lat;lon;timestamp;P1;durP1;ratioP1;P2;durP2;ratioP2
13981;SDS011;7065;50.880;5.502;2023-10-08T00:02:16;5.85;;;5.20;;
13981;SDS011;7065;50.880;5.502;2023-10-08T00:04:47;7.55;;;4.68;;
13981;SDS011;7065;50.880;5.502;2023-10-08T00:07:16;9.18;;;4.90;;
13981;SDS011;7065;50.880;5.502;2023-10-08T00:09:46;6.72;;;4.70;;
13981;SDS011;7065;50.880;5.502;2023-10-08T00:12:19;7.57;;;4.95;;
13981;SDS011;7065;50.880;5.502;2023-10-08T00:14:45;5.28;;;4.78;;
13981;SDS011;7065;50.880;5.502;2023-10-08T00:17:14;6.20;;;4.32;;
13981;SDS011;7065;50.880;5.502;2023-10-08T00:19:43;7.45;;;4.93;;
13981;SDS011;7065;50.880;5.502;2023-10-08T00:22:11;8.38;;;4.45;;
13981;SDS011;7065;50.880;5.502;2023-10-08T00:24:43;6.80;;;4.28;;
13981;SDS011;7065;50.880;5.502;2023-10-08T00:27:11;7.57;;;4.82;;
13981;SDS011;7065;50.880;5.502;2023-10-08T00:29:40;5.40;;;4.55;;
13981;SDS011;7065;50.880;5.502;2023-10-08T00:32:08;6.35;;;4.50;;
13981;SDS011;7065;50.880;5.502;2023-10-08T00:34:41;5.93;;;4.47;;
13981;SDS011;7065;50.880;5.502;2023-10-08T00:37:08;5.65;;;4.50;;
13981;SDS011;7065;50.880;5.502;2023-10-08T00:39:35;6.38;;;4.65;;
13981;SDS011;7065;50.880;5.502;2023-10-08T00:42:03;6.22;;;4.45;;
13981;SDS011;7065;50.880;5.502;2023-10-08T00:44:37;8.60;;;5.28;;
13981;SDS011;7065;50.880;5.502;2023-10-08T00:47:23;6.00;;;4.88;;
13981;SDS011;7065;50.880;5.502;2023-10-08T00:49:51;7.55;;;4.60;;
13981;SDS011;7065;50.880;5.502;2023-10-08T00:52:33;8.30;;;4.97;;
13981;SDS011;7065;50.880;5.502;2023-10-08T00:55:10;7.03;;;4.15;;
13981;SDS011;7065;50.880;5.502;2023-10-08T00:57:45;7.05;;;4.50;;
13981;SDS011;7065;50.880;5.502;2023-10-08T01:00:15;5.72;;;4.07;;
13981;SDS011;7065;50.880;5.502;2023-10-08T01:02:47;8.82;;;4.20;;
13981;SDS011;7065;50.880;5.502;2023-10-08T01:05:20;10.38;;;4.78;;
13981;SDS011;7065;50.880;5.502;2023-10-08T01:07:53;7.55;;;4.70;;
13981;SDS011;7065;50.880;5.502;2023-10-08T01:10:21;6.25;;;4.35;;
13981;SDS011;7065;50.880;5.502;2023-10-08T01:12:49;6.43;;;4.65;;
13981;SDS011;7065;50.880;5.502;2023-10-08T01:15:36;8.80;;;4.80;;
13981;SDS011;7065;50.880;5.502;2023-10-08T01:18:02;7.53;;;4.97;;
13981;SDS011;7065;50.880;5.502;2023-10-08T01:20:31;6.28;;;4.88;;
13981;SDS011;7065;50.880;5.502;2023-10-08T01:23:05;7.65;;;4.90;;
13981;SDS011;7065;50.880;5.502;2023-10-08T01:25:41;6.75;;;4.43;;
13981;SDS011;7065;50.880;5.502;2023-10-08T01:28:07;6.25;;;4.25;;
13981;SDS011;7065;50.880;5.502;2023-10-08T01:30:39;8.13;;;4.72;;
13981;SDS011;7065;50.880;5.502;2023-10-08T01:33:12;5.95;;;4.60;;
13981;SDS011;7065;50.880;5.502;2023-10-08T01:35:40;5.55;;;4.47;;
13981;SDS011;7065;50.880;5.502;2023-10-08T01:38:06;7.32;;;4.22;;
13981;SDS011;7065;50.880;5.502;2023-10-08T01:40:33;6.03;;;4.18;;
13981;SDS011;7065;50.880;5.502;2023-10-08T01:42:59;8.35;;;5.15;;
13981;SDS011;7065;50.880;5.502;2023-10-08T01:45:25;5.60;;;4.18;;
13981;SDS011;7065;50.880;5.502;2023-10-08T01:47:52;6.32;;;4.10;;
13981;SDS011;7065;50.880;5.502;2023-10-08T01:50:20;4.47;;;4.07;;
13981;SDS011;7065;50.880;5.502;2023-10-08T01:52:49;5.32;;;3.95;;
13981;SDS011;7065;50.880;5.502;2023-10-08T01:55:18;6.43;;;4.43;;
13981;SDS011;7065;50.880;5.502;2023-10-08T01:57:45;6.20;;;4.88;;
13981;SDS011;7065;50.880;5.502;2023-10-08T02:00:11;8.57;;;5.03;;
13981;SDS011;7065;50.880;5.502;2023-10-08T02:02:39;8.07;;;4.47;;
13981;SDS011;7065;50.880;5.502;2023-10-08T02:05:08;6.00;;;4.05;;
13981;SDS011;7065;50.880;5.502;2023-10-08T02:07:34;7.47;;;4.50;;
13981;SDS011;7065;50.880;5.502;2023-10-08T02:10:00;7.10;;;4.68;;
13981;SDS011;7065;50.880;5.502;2023-10-08T02:12:25;5.40;;;4.18;;
13981;SDS011;7065;50.880;5.502;2023-10-08T02:14:51;5.88;;;4.38;;
13981;SDS011;7065;50.880;5.502;2023-10-08T02:17:17;7.10;;;4.45;;
13981;SDS011;7065;50.880;5.502;2023-10-08T02:19:42;6.45;;;4.43;;
13981;SDS011;7065;50.880;5.502;2023-10-08T02:22:09;7.60;;;4.55;;
13981;SDS011;7065;50.880;5.502;2023-10-08T02:24:35;5.60;;;3.97;;
13981;SDS011;7065;50.880;5.502;2023-10-08T02:27:01;6.50;;;4.53;;
13981;SDS011;7065;50.880;5.502;2023-10-08T02:29:29;5.30;;;4.03;;
13981;SDS011;7065;50.880;5.502;2023-10-08T02:31:58;7.32;;;4.57;;
13981;SDS011;7065;50.880;5.502;2023-10-08T02:34:24;6.90;;;4.70;;
13981;SDS011;7065;50.880;5.502;2023-10-08T02:36:50;6.65;;;4.82;;
13981;SDS011;7065;50.880;5.502;2023-10-08T02:39:16;7.20;;;4.55;;
13981;SDS011;7065;50.880;5.502;2023-10-08T02:41:46;7.28;;;4.63;;
13981;SDS011;7065;50.880;5.502;2023-10-08T02:44:13;7.57;;;4.68;;
13981;SDS011;7065;50.880;5.502;2023-10-08T02:46:43;9.23;;;4.65;;
13981;SDS011;7065;50.880;5.502;2023-10-08T02:49:12;5.95;;;4.28;;
13981;SDS011;7065;50.880;5.502;2023-10-08T02:51:48;6.32;;;4.43;;
13981;SDS011;7065;50.880;5.502;2023-10-08T02:54:19;6.22;;;4.55;;
13981;SDS011;7065;50.880;5.502;2023-10-08T02:56:52;6.05;;;4.13;;
13981;SDS011;7065;50.880;5.502;2023-10-08T02:59:22;6.03;;;4.50;;
13981;SDS011;7065;50.880;5.502;2023-10-08T03:01:50;7.35;;;4.15;;
13981;SDS011;7065;50.880;5.502;2023-10-08T03:04:21;5.88;;;3.97;;
13981;SDS011;7065;50.880;5.502;2023-10-08T03:06:48;5.32;;;4.28;;
13981;SDS011;7065;50.880;5.502;2023-10-08T03:09:18;6.75;;;4.18;;
13981;SDS011;7065;50.880;5.502;2023-10-08T03:11:56;7.18;;;4.35;;
13981;SDS011;7065;50.880;5.502;2023-10-08T03:14:23;6.93;;;4.07;;
13981;SDS011;7065;50.880;5.502;2023-10-08T03:16:52;8.10;;;4.32;;
13981;SDS011;7065;50.880;5.502;2023-10-08T03:19:20;9.00;;;5.00;;
13981;SDS011;7065;50.880;5.502;2023-10-08T03:21:47;7.28;;;4.60;;
13981;SDS011;7065;50.880;5.502;2023-10-08T03:24:16;6.13;;;4.03;;
13981;SDS011;7065;50.880;5.502;2023-10-08T03:26:55;5.22;;;3.88;;
13981;SDS011;7065;50.880;5.502;2023-10-08T03:29:31;7.45;;;4.45;;
13981;SDS011;7065;50.880;5.502;2023-10-08T03:31:57;5.53;;;4.40;;
13981;SDS011;7065;50.880;5.502;2023-10-08T03:34:23;6.38;;;4.25;;
13981;SDS011;7065;50.880;5.502;2023-10-08T03:36:53;5.63;;;4.00;;
13981;SDS011;7065;50.880;5.502;2023-10-08T03:39:30;6.53;;;4.00;;
13981;SDS011;7065;50.880;5.502;2023-10-08T03:42:25;4.63;;;4.00;;
13981;SDS011;7065;50.880;5.502;2023-10-08T03:44:51;5.28;;;4.53;;
13981;SDS011;7065;50.880;5.502;2023-10-08T03:47:20;7.13;;;4.18;;
13981;SDS011;7065;50.880;5.502;2023-10-08T03:49:51;5.28;;;4.22;;
13981;SDS011;7065;50.880;5.502;2023-10-08T03:52:19;4.65;;;3.80;;
13981;SDS011;7065;50.880;5.502;2023-10-08T03:54:50;6.30;;;4.43;;
13981;SDS011;7065;50.880;5.502;2023-10-08T03:57:36;6.60;;;4.22;;
13981;SDS011;7065;50.880;5.502;2023-10-08T04:00:10;5.30;;;4.07;;
13981;SDS011;7065;50.880;5.502;2023-10-08T04:02:47;5.55;;;4.38;;
13981;SDS011;7065;50.880;5.502;2023-10-08T04:05:23;6.50;;;4.30;;
13981;SDS011;7065;50.880;5.502;2023-10-08T04:07:56;4.95;;;3.90;;
13981;SDS011;7065;50.880;5.502;2023-10-08T04:10:26;7.53;;;4.68;;
13981;SDS011;7065;50.880;5.502;2023-10-08T04:13:24;7.47;;;4.43;;
13981;SDS011;7065;50.880;5.502;2023-10-08T04:15:50;5.72;;;3.97;;
13981;SDS011;7065;50.880;5.502;2023-10-08T04:18:17;5.40;;;4.10;;
13981;SDS011;7065;50.880;5.502;2023-10-08T04:20:47;6.78;;;4.00;;
13981;SDS011;7065;50.880;5.502;2023-10-08T04:23:33;6.32;;;4.50;;
13981;SDS011;7065;50.880;5.502;2023-10-08T04:26:01;6.15;;;4.28;;
13981;SDS011;7065;50.880;5.502;2023-10-08T04:28:28;5.53;;;3.80;;
13981;SDS011;7065;50.880;5.502;2023-10-08T04:30:59;5.10;;;4.20;;
13981;SDS011;7065;50.880;5.502;2023-10-08T04:33:39;5.72;;;4.22;;
13981;SDS011;7065;50.880;5.502;2023-10-08T04:36:06;4.85;;;3.97;;
13981;SDS011;7065;50.880;5.502;2023-10-08T04:38:32;4.82;;;4.15;;
13981;SDS011;7065;50.880;5.502;2023-10-08T04:41:04;4.15;;;3.65;;
13981;SDS011;7065;50.880;5.502;2023-10-08T04:43:34;4.90;;;3.90;;
13981;SDS011;7065;50.880;5.502;2023-10-08T04:46:04;4.35;;;3.95;;
13981;SDS011;7065;50.880;5.502;2023-10-08T04:48:33;5.63;;;3.90;;
13981;SDS011;7065;50.880;5.502;2023-10-08T04:51:02;5.32;;;4.10;;
13981;SDS011;7065;50.880;5.502;2023-10-08T04:53:32;5.10;;;4.18;;
13981;SDS011;7065;50.880;5.502;2023-10-08T04:56:05;4.85;;;3.80;;
13981;SDS011;7065;50.880;5.502;2023-10-08T04:58:44;5.38;;;4.60;;
13981;SDS011;7065;50.880;5.502;2023-10-08T05:01:14;6.00;;;4.95;;
13981;SDS011;7065;50.880;5.502;2023-10-08T05:03:44;7.95;;;5.43;;
13981;SDS011;7065;50.880;5.502;2023-10-08T05:06:30;7.40;;;5.07;;
13981;SDS011;7065;50.880;5.502;2023-10-08T05:09:00;6.28;;;4.25;;
13981;SDS011;7065;50.880;5.502;2023-10-08T05:11:38;8.80;;;5.07;;
13981;SDS011;7065;50.880;5.502;2023-10-08T05:14:25;6.30;;;4.85;;
13981;SDS011;7065;50.880;5.502;2023-10-08T05:17:04;6.90;;;4.53;;
13981;SDS011;7065;50.880;5.502;2023-10-08T05:19:37;5.13;;;4.30;;
13981;SDS011;7065;50.880;5.502;2023-10-08T05:22:12;6.82;;;4.55;;
13981;SDS011;7065;50.880;5.502;2023-10-08T05:24:52;7.55;;;4.93;;
13981;SDS011;7065;50.880;5.502;2023-10-08T05:27:37;7.45;;;4.40;;
13981;SDS011;7065;50.880;5.502;2023-10-08T05:30:16;6.53;;;4.80;;
13981;SDS011;7065;50.880;5.502;2023-10-08T05:32:57;9.18;;;4.93;;
13981;SDS011;7065;50.880;5.502;2023-10-08T05:35:33;9.63;;;5.28;;
13981;SDS011;7065;50.880;5.502;2023-10-08T05:38:06;10.07;;;5.57;;
13981;SDS011;7065;50.880;5.502;2023-10-08T05:40:48;7.90;;;4.68;;
13981;SDS011;7065;50.880;5.502;2023-10-08T05:43:27;6.00;;;4.60;;
13981;SDS011;7065;50.880;5.502;2023-10-08T05:46:09;7.50;;;4.95;;
13981;SDS011;7065;50.880;5.502;2023-10-08T05:48:48;6.25;;;4.82;;
13981;SDS011;7065;50.880;5.502;2023-10-08T05:51:36;7.88;;;5.28;;
13981;SDS011;7065;50.880;5.502;2023-10-08T05:56:59;6.35;;;4.75;;
13981;SDS011;7065;50.880;5.502;2023-10-08T05:59:49;6.35;;;4.90;;
13981;SDS011;7065;50.880;5.502;2023-10-08T06:02:21;6.90;;;5.20;;
13981;SDS011;7065;50.880;5.502;2023-10-08T06:05:14;5.28;;;4.07;;
13981;SDS011;7065;50.880;5.502;2023-10-08T06:07:52;6.43;;;4.38;;
13981;SDS011;7065;50.880;5.502;2023-10-08T06:10:19;6.65;;;4.35;;
13981;SDS011;7065;50.880;5.502;2023-10-08T06:13:07;5.82;;;4.72;;
13981;SDS011;7065;50.880;5.502;2023-10-08T06:18:14;7.35;;;5.28;;
13981;SDS011;7065;50.880;5.502;2023-10-08T06:20:41;7.25;;;5.22;;
13981;SDS011;7065;50.880;5.502;2023-10-08T06:23:13;5.65;;;4.90;;
13981;SDS011;7065;50.880;5.502;2023-10-08T06:25:43;8.80;;;5.97;;
13981;SDS011;7065;50.880;5.502;2023-10-08T06:30:47;7.53;;;5.28;;
13981;SDS011;7065;50.880;5.502;2023-10-08T06:33:15;8.75;;;5.82;;
13981;SDS011;7065;50.880;5.502;2023-10-08T06:35:43;5.95;;;4.97;;
13981;SDS011;7065;50.880;5.502;2023-10-08T06:38:10;10.77;;;5.40;;
13981;SDS011;7065;50.880;5.502;2023-10-08T06:40:36;7.18;;;5.45;;
13981;SDS011;7065;50.880;5.502;2023-10-08T06:43:05;6.93;;;4.72;;
13981;SDS011;7065;50.880;5.502;2023-10-08T06:45:43;6.47;;;4.43;;
13981;SDS011;7065;50.880;5.502;2023-10-08T06:48:11;7.60;;;4.47;;
13981;SDS011;7065;50.880;5.502;2023-10-08T06:50:44;6.68;;;4.60;;
13981;SDS011;7065;50.880;5.502;2023-10-08T06:53:10;5.72;;;4.80;;
13981;SDS011;7065;50.880;5.502;2023-10-08T06:55:39;6.70;;;4.63;;
13981;SDS011;7065;50.880;5.502;2023-10-08T06:58:06;6.20;;;5.13;;
13981;SDS011;7065;50.880;5.502;2023-10-08T07:00:34;7.75;;;5.18;;
13981;SDS011;7065;50.880;5.502;2023-10-08T07:03:14;5.60;;;4.32;;
13981;SDS011;7065;50.880;5.502;2023-10-08T07:05:42;5.20;;;4.22;;
13981;SDS011;7065;50.880;5.502;2023-10-08T07:08:21;7.38;;;4.90;;
13981;SDS011;7065;50.880;5.502;2023-10-08T07:10:48;6.78;;;4.97;;
13981;SDS011;7065;50.880;5.502;2023-10-08T07:13:15;6.68;;;5.07;;
13981;SDS011;7065;50.880;5.502;2023-10-08T07:15:43;7.65;;;5.63;;
13981;SDS011;7065;50.880;5.502;2023-10-08T07:18:10;8.82;;;5.65;;
13981;SDS011;7065;50.880;5.502;2023-10-08T07:20:39;8.35;;;5.93;;
13981;SDS011;7065;50.880;5.502;2023-10-08T07:23:07;7.90;;;5.35;;
13981;SDS011;7065;50.880;5.502;2023-10-08T07:25:43;6.85;;;5.03;;
13981;SDS011;7065;50.880;5.502;2023-10-08T07:28:12;8.07;;;5.38;;
13981;SDS011;7065;50.880;5.502;2023-10-08T07:30:38;6.55;;;5.05;;
13981;SDS011;7065;50.880;5.502;2023-10-08T07:33:12;8.00;;;4.95;;
13981;SDS011;7065;50.880;5.502;2023-10-08T07:35:43;7.32;;;5.22;;
13981;SDS011;7065;50.880;5.502;2023-10-08T07:38:17;8.70;;;5.60;;
13981;SDS011;7065;50.880;5.502;2023-10-08T07:40:43;6.40;;;5.47;;
13981;SDS011;7065;50.880;5.502;2023-10-08T07:43:09;7.78;;;5.28;;
13981;SDS011;7065;50.880;5.502;2023-10-08T07:45:35;8.68;;;5.57;;
13981;SDS011;7065;50.880;5.502;2023-10-08T07:48:01;9.30;;;5.93;;
13981;SDS011;7065;50.880;5.502;2023-10-08T07:50:34;8.82;;;6.38;;
13981;SDS011;7065;50.880;5.502;2023-10-08T07:53:03;10.70;;;6.43;;
13981;SDS011;7065;50.880;5.502;2023-10-08T07:55:29;10.82;;;6.32;;
13981;SDS011;7065;50.880;5.502;2023-10-08T07:57:57;7.00;;;5.53;;
13981;SDS011;7065;50.880;5.502;2023-10-08T08:00:24;7.57;;;5.68;;
13981;SDS011;7065;50.880;5.502;2023-10-08T08:02:55;9.02;;;5.88;;
13981;SDS011;7065;50.880;5.502;2023-10-08T08:05:21;7.85;;;5.93;;
13981;SDS011;7065;50.880;5.502;2023-10-08T08:07:47;8.93;;;6.00;;
13981;SDS011;7065;50.880;5.502;2023-10-08T08:10:17;10.52;;;6.50;;
13981;SDS011;7065;50.880;5.502;2023-10-08T08:12:43;10.48;;;6.20;;
13981;SDS011;7065;50.880;5.502;2023-10-08T08:15:10;9.85;;;6.75;;
13981;SDS011;7065;50.880;5.502;2023-10-08T08:17:40;10.98;;;6.40;;
13981;SDS011;7065;50.880;5.502;2023-10-08T08:20:06;9.27;;;5.85;;
13981;SDS011;7065;50.880;5.502;2023-10-08T08:22:43;10.20;;;6.18;;
13981;SDS011;7065;50.880;5.502;2023-10-08T08:25:17;8.98;;;6.30;;
13981;SDS011;7065;50.880;5.502;2023-10-08T08:27:59;10.10;;;6.25;;
13981;SDS011;7065;50.880;5.502;2023-10-08T08:30:25;9.10;;;6.18;;
13981;SDS011;7065;50.880;5.502;2023-10-08T08:32:51;10.82;;;6.43;;
13981;SDS011;7065;50.880;5.502;2023-10-08T08:35:19;11.27;;;6.97;;
13981;SDS011;7065;50.880;5.502;2023-10-08T08:37:45;12.48;;;6.65;;
13981;SDS011;7065;50.880;5.502;2023-10-08T08:40:11;13.25;;;7.00;;
13981;SDS011;7065;50.880;5.502;2023-10-08T08:42:43;11.45;;;6.38;;
13981;SDS011;7065;50.880;5.502;2023-10-08T08:45:12;10.50;;;6.97;;
13981;SDS011;7065;50.880;5.502;2023-10-08T08:47:43;11.90;;;6.28;;
13981;SDS011;7065;50.880;5.502;2023-10-08T08:50:10;9.27;;;6.30;;
13981;SDS011;7065;50.880;5.502;2023-10-08T08:52:39;11.10;;;6.80;;
13981;SDS011;7065;50.880;5.502;2023-10-08T08:55:08;13.38;;;6.85;;
13981;SDS011;7065;50.880;5.502;2023-10-08T08:57:41;10.20;;;6.45;;
13981;SDS011;7065;50.880;5.502;2023-10-08T09:00:09;11.13;;;6.35;;
13981;SDS011;7065;50.880;5.502;2023-10-08T09:02:44;14.73;;;7.32;;
13981;SDS011;7065;50.880;5.502;2023-10-08T09:05:12;11.82;;;6.97;;
13981;SDS011;7065;50.880;5.502;2023-10-08T09:08:06;8.73;;;6.53;;
13981;SDS011;7065;50.880;5.502;2023-10-08T09:10:36;11.05;;;6.90;;
13981;SDS011;7065;50.880;5.502;2023-10-08T09:13:03;9.52;;;7.03;;
13981;SDS011;7065;50.880;5.502;2023-10-08T09:15:30;13.20;;;8.25;;
13981;SDS011;7065;50.880;5.502;2023-10-08T09:17:57;13.13;;;7.60;;
13981;SDS011;7065;50.880;5.502;2023-10-08T09:20:26;12.43;;;7.35;;
13981;SDS011;7065;50.880;5.502;2023-10-08T09:23:09;15.27;;;8.15;;
13981;SDS011;7065;50.880;5.502;2023-10-08T09:25:41;11.68;;;7.40;;
13981;SDS011;7065;50.880;5.502;2023-10-08T09:28:08;14.23;;;8.25;;
13981;SDS011;7065;50.880;5.502;2023-10-08T09:30:34;12.43;;;7.63;;
13981;SDS011;7065;50.880;5.502;2023-10-08T09:33:03;12.05;;;7.40;;
13981;SDS011;7065;50.880;5.502;2023-10-08T09:35:31;13.95;;;8.40;;
13981;SDS011;7065;50.880;5.502;2023-10-08T09:37:58;12.25;;;7.15;;
13981;SDS011;7065;50.880;5.502;2023-10-08T09:40:27;11.63;;;7.35;;
13981;SDS011;7065;50.880;5.502;2023-10-08T09:42:53;12.98;;;7.65;;
13981;SDS011;7065;50.880;5.502;2023-10-08T09:45:20;12.82;;;7.97;;
13981;SDS011;7065;50.880;5.502;2023-10-08T09:47:49;10.70;;;7.40;;
13981;SDS011;7065;50.880;5.502;2023-10-08T09:50:19;12.23;;;7.38;;
13981;SDS011;7065;50.880;5.502;2023-10-08T09:52:56;12.25;;;7.40;;
13981;SDS011;7065;50.880;5.502;2023-10-08T09:55:31;13.13;;;7.00;;
13981;SDS011;7065;50.880;5.502;2023-10-08T09:57:57;11.13;;;6.85;;
13981;SDS011;7065;50.880;5.502;2023-10-08T10:00:23;16.45;;;7.90;;
13981;SDS011;7065;50.880;5.502;2023-10-08T10:02:58;9.45;;;7.03;;
13981;SDS011;7065;50.880;5.502;2023-10-08T10:05:29;16.60;;;7.57;;
13981;SDS011;7065;50.880;5.502;2023-10-08T10:07:55;12.23;;;7.15;;
13981;SDS011;7065;50.880;5.502;2023-10-08T10:10:25;10.88;;;6.90;;
13981;SDS011;7065;50.880;5.502;2023-10-08T10:12:52;11.35;;;7.30;;
13981;SDS011;7065;50.880;5.502;2023-10-08T10:15:21;13.35;;;8.50;;
13981;SDS011;7065;50.880;5.502;2023-10-08T10:17:47;13.98;;;8.10;;
13981;SDS011;7065;50.880;5.502;2023-10-08T10:20:14;12.38;;;7.43;;
13981;SDS011;7065;50.880;5.502;2023-10-08T10:22:42;13.80;;;7.70;;
13981;SDS011;7065;50.880;5.502;2023-10-08T10:25:09;12.27;;;7.75;;
13981;SDS011;7065;50.880;5.502;2023-10-08T10:30:18;13.23;;;8.35;;
13981;SDS011;7065;50.880;5.502;2023-10-08T10:32:44;11.40;;;7.78;;
13981;SDS011;7065;50.880;5.502;2023-10-08T10:35:15;15.82;;;7.90;;
13981;SDS011;7065;50.880;5.502;2023-10-08T10:37:44;13.50;;;7.75;;
13981;SDS011;7065;50.880;5.502;2023-10-08T10:40:21;13.77;;;7.85;;
13981;SDS011;7065;50.880;5.502;2023-10-08T10:43:16;13.07;;;8.15;;
13981;SDS011;7065;50.880;5.502;2023-10-08T10:45:45;13.35;;;8.07;;
13981;SDS011;7065;50.880;5.502;2023-10-08T10:48:12;12.30;;;8.30;;
13981;SDS011;7065;50.880;5.502;2023-10-08T10:50:48;11.85;;;8.45;;
13981;SDS011;7065;50.880;5.502;2023-10-08T10:53:40;14.05;;;7.85;;
13981;SDS011;7065;50.880;5.502;2023-10-08T10:56:25;12.15;;;7.72;;
13981;SDS011;7065;50.880;5.502;2023-10-08T10:59:04;14.70;;;8.50;;
13981;SDS011;7065;50.880;5.502;2023-10-08T11:01:50;13.68;;;8.38;;
13981;SDS011;7065;50.880;5.502;2023-10-08T11:04:31;13.05;;;8.52;;
13981;SDS011;7065;50.880;5.502;2023-10-08T11:06:57;11.60;;;7.30;;
13981;SDS011;7065;50.880;5.502;2023-10-08T11:09:26;11.98;;;7.82;;
13981;SDS011;7065;50.880;5.502;2023-10-08T11:12:02;13.25;;;8.15;;
13981;SDS011;7065;50.880;5.502;2023-10-08T11:14:36;12.27;;;7.63;;
13981;SDS011;7065;50.880;5.502;2023-10-08T11:19:47;12.00;;;7.43;;
13981;SDS011;7065;50.880;5.502;2023-10-08T11:22:13;9.85;;;6.95;;
13981;SDS011;7065;50.880;5.502;2023-10-08T11:24:43;14.23;;;7.65;;
13981;SDS011;7065;50.880;5.502;2023-10-08T11:27:13;12.43;;;7.50;;
13981;SDS011;7065;50.880;5.502;2023-10-08T11:29:45;13.45;;;8.13;;
13981;SDS011;7065;50.880;5.502;2023-10-08T11:32:13;14.90;;;8.52;;
13981;SDS011;7065;50.880;5.502;2023-10-08T11:34:54;13.88;;;9.05;;
13981;SDS011;7065;50.880;5.502;2023-10-08T11:37:31;14.90;;;8.20;;
13981;SDS011;7065;50.880;5.502;2023-10-08T11:40:01;12.57;;;8.13;;
13981;SDS011;7065;50.880;5.502;2023-10-08T11:42:43;12.20;;;7.75;;
13981;SDS011;7065;50.880;5.502;2023-10-08T11:45:11;12.07;;;7.88;;
13981;SDS011;7065;50.880;5.502;2023-10-08T11:47:46;15.00;;;8.70;;
13981;SDS011;7065;50.880;5.502;2023-10-08T11:50:20;14.20;;;8.43;;
13981;SDS011;7065;50.880;5.502;2023-10-08T11:52:55;15.73;;;7.32;;
13981;SDS011;7065;50.880;5.502;2023-10-08T11:55:26;13.25;;;7.70;;
13981;SDS011;7065;50.880;5.502;2023-10-08T11:57:52;13.25;;;8.35;;
13981;SDS011;7065;50.880;5.502;2023-10-08T12:00:19;12.27;;;7.68;;
13981;SDS011;7065;50.880;5.502;2023-10-08T12:02:47;11.85;;;7.47;;
13981;SDS011;7065;50.880;5.502;2023-10-08T12:05:13;12.10;;;7.60;;
13981;SDS011;7065;50.880;5.502;2023-10-08T12:07:49;12.23;;;7.25;;
13981;SDS011;7065;50.880;5.502;2023-10-08T12:10:16;13.00;;;8.02;;
13981;SDS011;7065;50.880;5.502;2023-10-08T12:12:50;15.13;;;8.52;;
13981;SDS011;7065;50.880;5.502;2023-10-08T12:15:25;12.77;;;7.13;;
13981;SDS011;7065;50.880;5.502;2023-10-08T12:18:03;13.70;;;7.82;;
13981;SDS011;7065;50.880;5.502;2023-10-08T12:21:06;11.70;;;6.90;;
13981;SDS011;7065;50.880;5.502;2023-10-08T12:23:40;11.05;;;7.35;;
13981;SDS011;7065;50.880;5.502;2023-10-08T12:26:08;13.68;;;8.13;;
13981;SDS011;7065;50.880;5.502;2023-10-08T12:28:34;11.75;;;7.15;;
13981;SDS011;7065;50.880;5.502;2023-10-08T12:31:01;11.10;;;6.95;;
13981;SDS011;7065;50.880;5.502;2023-10-08T12:33:29;10.63;;;6.90;;
13981;SDS011;7065;50.880;5.502;2023-10-08T12:35:55;11.75;;;6.93;;
13981;SDS011;7065;50.880;5.502;2023-10-08T12:38:23;11.15;;;6.78;;
13981;SDS011;7065;50.880;5.502;2023-10-08T12:40:52;15.07;;;7.15;;
13981;SDS011;7065;50.880;5.502;2023-10-08T12:43:23;14.32;;;7.53;;
13981;SDS011;7065;50.880;5.502;2023-10-08T12:45:52;12.70;;;6.45;;
13981;SDS011;7065;50.880;5.502;2023-10-08T12:48:22;11.38;;;6.82;;
13981;SDS011;7065;50.880;5.502;2023-10-08T12:50:52;13.75;;;7.47;;
13981;SDS011;7065;50.880;5.502;2023-10-08T12:53:26;11.27;;;6.93;;
13981;SDS011;7065;50.880;5.502;2023-10-08T12:55:58;10.50;;;6.78;;
13981;SDS011;7065;50.880;5.502;2023-10-08T12:58:30;9.50;;;6.50;;
13981;SDS011;7065;50.880;5.502;2023-10-08T13:00:58;10.90;;;6.60;;
13981;SDS011;7065;50.880;5.502;2023-10-08T13:03:28;12.43;;;7.45;;
13981;SDS011;7065;50.880;5.502;2023-10-08T13:05:58;9.80;;;6.65;;
13981;SDS011;7065;50.880;5.502;2023-10-08T13:08:31;10.93;;;7.20;;
13981;SDS011;7065;50.880;5.502;2023-10-08T13:10:58;12.05;;;6.53;;
13981;SDS011;7065;50.880;5.502;2023-10-08T13:13:26;15.68;;;7.03;;
13981;SDS011;7065;50.880;5.502;2023-10-08T13:15:52;10.50;;;6.80;;
13981;SDS011;7065;50.880;5.502;2023-10-08T13:18:22;12.88;;;6.55;;
13981;SDS011;7065;50.880;5.502;2023-10-08T13:20:53;10.13;;;6.22;;
13981;SDS011;7065;50.880;5.502;2023-10-08T13:23:19;11.38;;;6.90;;
13981;SDS011;7065;50.880;5.502;2023-10-08T13:25:52;9.77;;;6.88;;
13981;SDS011;7065;50.880;5.502;2023-10-08T13:28:29;12.60;;;6.43;;
13981;SDS011;7065;50.880;5.502;2023-10-08T13:30:55;11.40;;;5.80;;
13981;SDS011;7065;50.880;5.502;2023-10-08T13:33:21;12.43;;;6.68;;
13981;SDS011;7065;50.880;5.502;2023-10-08T13:35:47;12.73;;;6.63;;
13981;SDS011;7065;50.880;5.502;2023-10-08T13:38:17;10.63;;;6.28;;
13981;SDS011;7065;50.880;5.502;2023-10-08T13:40:45;12.18;;;6.00;;
13981;SDS011;7065;50.880;5.502;2023-10-08T13:43:34;12.20;;;6.43;;
13981;SDS011;7065;50.880;5.502;2023-10-08T13:46:02;11.52;;;6.05;;
13981;SDS011;7065;50.880;5.502;2023-10-08T13:48:33;15.10;;;7.00;;
13981;SDS011;7065;50.880;5.502;2023-10-08T13:51:01;10.65;;;5.97;;
13981;SDS011;7065;50.880;5.502;2023-10-08T13:53:29;11.57;;;6.50;;
13981;SDS011;7065;50.880;5.502;2023-10-08T13:55:59;12.32;;;5.93;;
13981;SDS011;7065;50.880;5.502;2023-10-08T13:58:28;10.95;;;5.80;;
13981;SDS011;7065;50.880;5.502;2023-10-08T14:01:00;13.82;;;6.53;;
13981;SDS011;7065;50.880;5.502;2023-10-08T14:03:30;10.68;;;6.10;;
13981;SDS011;7065;50.880;5.502;2023-10-08T14:05:59;9.63;;;6.60;;
13981;SDS011;7065;50.880;5.502;2023-10-08T14:08:29;11.90;;;6.68;;
13981;SDS011;7065;50.880;5.502;2023-10-08T14:10:56;10.13;;;6.20;;
13981;SDS011;7065;50.880;5.502;2023-10-08T14:13:31;9.88;;;6.25;;
13981;SDS011;7065;50.880;5.502;2023-10-08T14:15:58;10.73;;;6.20;;
13981;SDS011;7065;50.880;5.502;2023-10-08T14:18:24;11.50;;;6.30;;
13981;SDS011;7065;50.880;5.502;2023-10-08T14:20:59;12.02;;;6.10;;
13981;SDS011;7065;50.880;5.502;2023-10-08T14:23:26;10.50;;;5.95;;
13981;SDS011;7065;50.880;5.502;2023-10-08T14:25:54;10.57;;;6.22;;
13981;SDS011;7065;50.880;5.502;2023-10-08T14:28:28;10.98;;;6.10;;
13981;SDS011;7065;50.880;5.502;2023-10-08T14:31:17;9.98;;;6.22;;
13981;SDS011;7065;50.880;5.502;2023-10-08T14:33:44;11.25;;;5.60;;
13981;SDS011;7065;50.880;5.502;2023-10-08T14:36:28;11.45;;;6.25;;
13981;SDS011;7065;50.880;5.502;2023-10-08T14:39:13;14.30;;;6.45;;
13981;SDS011;7065;50.880;5.502;2023-10-08T14:41:56;9.68;;;5.90;;
13981;SDS011;7065;50.880;5.502;2023-10-08T14:44:51;14.10;;;6.10;;
13981;SDS011;7065;50.880;5.502;2023-10-08T14:47:17;10.68;;;6.55;;
13981;SDS011;7065;50.880;5.502;2023-10-08T14:49:43;12.95;;;5.93;;
13981;SDS011;7065;50.880;5.502;2023-10-08T14:52:09;14.25;;;6.22;;
13981;SDS011;7065;50.880;5.502;2023-10-08T14:54:35;10.55;;;5.88;;
13981;SDS011;7065;50.880;5.502;2023-10-08T14:57:00;8.88;;;5.88;;
13981;SDS011;7065;50.880;5.502;2023-10-08T14:59:28;8.48;;;5.38;;
13981;SDS011;7065;50.880;5.502;2023-10-08T15:01:56;10.23;;;5.80;;
13981;SDS011;7065;50.880;5.502;2023-10-08T15:04:23;13.25;;;6.18;;
13981;SDS011;7065;50.880;5.502;2023-10-08T15:06:53;10.40;;;5.13;;
13981;SDS011;7065;50.880;5.502;2023-10-08T15:09:22;11.60;;;5.43;;
13981;SDS011;7065;50.880;5.502;2023-10-08T15:11:52;12.60;;;6.00;;
13981;SDS011;7065;50.880;5.502;2023-10-08T15:14:18;12.88;;;5.95;;
13981;SDS011;7065;50.880;5.502;2023-10-08T15:16:45;11.00;;;5.40;;
13981;SDS011;7065;50.880;5.502;2023-10-08T15:19:18;13.90;;;6.07;;
13981;SDS011;7065;50.880;5.502;2023-10-08T15:21:44;9.70;;;5.68;;
13981;SDS011;7065;50.880;5.502;2023-10-08T15:24:15;9.20;;;5.82;;
13981;SDS011;7065;50.880;5.502;2023-10-08T15:26:47;9.25;;;6.10;;
13981;SDS011;7065;50.880;5.502;2023-10-08T15:29:18;10.45;;;6.15;;
13981;SDS011;7065;50.880;5.502;2023-10-08T15:31:46;10.25;;;5.60;;
13981;SDS011;7065;50.880;5.502;2023-10-08T15:34:14;9.13;;;6.03;;